Monroe, Virginia
Current Conditions -  °F | °C
As of 1:54 PM on Tuesday 21 Oct 2014 (Local Time) from KLYH Reporting Station
Overcast Overcast  
Wind Chill: 65°   Ceiling: 8500
Heat Index: 65°   Visibility: 10mi
Dew Point: 47°   Wind: 6mph
Humidity: 52%   Direction: NA
Pressure: 29.87"   Gusts: NA
Location:  37.5°N, 79.13°W
Report Text: KLYH 211754Z VRB05KT 10SM OVC085 18/08 A2987 RMK AO2 SLP112 T01830083 10194 20067 58015
Loading
Personal Weather Stations






























Interactive Weather Map
Tropical Storm Tracking
New forecast layout! Learn more

10-Day Weather Forecast

Advertisements
Track Severe Weather on mobile